UPDATE or REFRESH or RELOAD each time you view race results!

The  Belmont 16ft Sailing Club Ltd  Presents

Results by : TopYacht Software

Race 2   [29/12/2011]   updated on :  29/12/2011  4:03:10 PM

Cadet National Championships 2011/12

Cadet Nationals results Start : 13:55:00
Place Sail No Boat Name From Elapsd YS Cor d T Skipper CREW Score Fin Tim
1 9280 UNFINISHED BUSINESS SYC 01:08:04 01:08:04 Alice Endersbee Eliza Davies 1.0 15:03:04
2 9699 SIROCCO SBSC 01:08:48 01:08:48 Charlie Connor Ethan Galbraith 2.0 15:03:48
3 9778 IMPULSE SBSC 01:09:13 01:09:13 Samantha Bailey Hannah Chadwick 3.0 15:04:13
4 9698 WILDCARD RGYC 01:10:19 01:10:19 Liam Robinson Gabe Nolan 4.0 15:05:19
5 9284 MAGOO 2 SYC 01:10:48 01:10:48 Patrick Chipp Jack Furey 5.0 15:05:48
6 9562 MELTEMI SBSC 01:10:57 01:10:57 Oliver Burnell Issie De Clerk 6.0 15:05:57
7 9529 INSAYNE SYC 01:11:11 01:11:11 Jacob Freeman Jonathan Coman 7.0 15:06:11
8 9523 BROTHERS IN ARMS RGYC 01:11:13 01:11:13 Darcy Baranowski Dominic Randall 8.0 15:06:13
9 9552 EXECUTIONER SBSC 01:11:35 01:11:35 Silas Hamilton Rupert Hamilton 9.0 15:06:35
10 9531 PHOENIX SBSC 01:11:38 01:11:38 Sam Tiedemann Chloe Abel 10.0 15:06:38
11 9550 JOLT BSC 01:12:03 01:12:03 Sarah Lawman Robert Donovan 11.0 15:07:03
12 9528 ODYSSEY SYC 01:12:22 01:12:22 Jarad Cavanagh Shae Rohan 12.0 15:07:22
13 9614 TEMPEST RGYC 01:12:24 01:12:24 Olivia Neilson Joel Lay 13.0 15:07:24
14 5700 SIDEWINDER RYCV 01:12:31 01:12:31 Louis Schofield Max Knell 14.0 15:07:31
15 9744 SHADOW LBSC 01:12:34 01:12:34 Jalina Thompson-Kamb Starr Thompson 15.0 15:07:34
16 9281 HIGH CALIBRE PLYC 01:12:41 01:12:41 Lauren Henderson Alissa Kelsey 16.0 15:07:41
17 9824 ENDLESS SUMMER PLYC 01:12:46 01:12:46 Amy Perin Marni Lydeamore 17.0 15:07:46
18 5653 MANXMAN RYCV 01:12:57 01:12:57 Brodie Roberts Callum Prestedge 18.0 15:07:57
19 9620 BLITZ~EM BSC 01:12:59 01:12:59 Ryan Bogatez Mark Donovan 19.0 15:07:59
20 9424 SHIMMER SBSC 01:13:11 01:13:11 Sam Abel William Cooper 20.0 15:08:11
21 9629 WHITE MISSILE RGYC 01:13:23 01:13:23 Nicola Armstrong Emma Kelly 21.0 15:08:23
22 4109 SNAKEBITE RGYC 01:14:22 01:14:22 William Townson Claire Townson 22.0 15:09:22
23 9823 LEAP FROG RGYC 01:15:10 01:15:10 Lucy Stephens Alanna Field 23.0 15:10:10
24 8931 MIDNIGHT MAGIC RGYC 01:15:39 01:15:39 Charlie Friend Ben Townson 24.0 15:10:39
25 9520 DROP BEARS SBSC 01:15:50 01:15:50 William Connor Callum Ingram 25.0 15:10:50
26 9612 DIRTY HARRY SYC 01:15:56 01:15:56 Angus Rae Zoe Rae 26.0 15:10:56
27 9621 STEALTH RYCV 01:16:07 01:16:07 Jack Fowler Ryan Croft 27.0 15:11:07
28 9559 RESISTANCE RGYC 01:16:17 01:16:17 Riley Mulgrew Oliver Manton 28.0 15:11:17
29 9628 IT'S PINK! RGYC 01:16:23 01:16:23 Emily Goodfellow Lachlan Hill 29.0 15:11:23
30 4118 SKEETA RGYC 01:16:28 01:16:28 Oliver Friend Jasper Cartwright 30.0 15:11:28
31 5757 STRIKER SYC 01:16:34 01:16:34 Dylan Rohan Lachlan Coman 31.0 15:11:34
32 9527 MUSTANG SALLY RYCV 01:16:36 01:16:36 Jacqueline Prestedge Callum Girvin 32.0 15:11:36
33 5637 VAMOOSE SYC 01:16:50 01:16:50 Charlie Rae Patrick Rohan 33.0 15:11:50
34 5494 RUSTLER BSC 01:17:56 01:17:56 Stuart Plenderleith Oscar O'Brien 34.0 15:12:56
35 5758 WILD THING SBSC 01:18:00 01:18:00 Thomas Cooper Angus Price 35.0 15:13:00
36 9747 LIFE TO THE XTREME PLYC 01:18:31 01:18:31 Georgina Hughes Elsie Kenny 36.0 15:13:31
37 9611 HOLD ON RYCV 01:18:34 01:18:34 Harrison Croft James Black 37.0 15:13:34
38 9822 GOODNESS GRACIOUS SYC 01:19:14 01:19:14 Grace Endersbee Courtney Perryman 38.0 15:14:14
39 9821 SIBERIAN TIGER RGYC 01:19:16 01:19:16 Sam Stephens Nathan Field 39.0 15:14:16
40 5663 REDPATH RGYC 01:19:55 01:19:55 Georgia Randall Matthew Eid 40.0 15:14:55
41 9287 CORINTHIAN BSC 01:20:16 01:20:16 Fenella Obrien Toby Burley-Jukes 41.0 15:15:16
42 5509 SAMARAN SYC 01:20:18 01:20:18 Julian Sasson Molly Furey 42.0 15:15:18
43 5661 REBEL TWO RGYC 01:20:33 01:20:33 Will Newman Nick Manton 43.0 15:15:33
44 9426 CRAZY BSC 01:20:34 01:20:34 Tristan O'Brien Ella Gray 44.0 15:15:34
45 9524 KING GEORGE RYCV 01:20:44 01:20:44 Phillipah Miller Lucy Fowler 45.0 15:15:44
46 6969 BRIDGEWICK FARM RYCV 01:21:04 01:21:04 Lucy Fowler Wynn Schofield 46.0 15:16:04
47 9561 WINNING EDGE SBSC 01:21:22 01:21:22 Toby Burnell Poppy Newton 47.0 15:16:22
48 4881 PIRANHA BSC 01:22:15 01:22:15 Charlotte Gray Mackenzie Gray 48.0 15:17:15
49 9526 HYPER HYPER SYC 01:22:23 01:22:23 Ashley Cavanagh Georgia Wiley 49.0 15:17:23
50 9626 CLAREBUOYANT RYCV 01:22:41 01:22:41 Clare Olding Patrick De Koster 50.0 15:17:41
51 5636 TRUMP CARD BMYC 01:23:04 01:23:04 Kurt Braden Zac Braden 51.0 15:18:04
52 9777 X-T-SEA RGYC 01:23:07 01:23:07 Billy Goodfellow Joshua Hill 52.0 15:18:07
53 9616 CHECKMATE RGYC 01:23:30 01:23:30 Thomas Alexander Dexter Hare-Zen 53.0 15:18:30
54 5740 RECOIL BSC 01:23:31 01:23:31 James Burley-Jukes Charlotte Rogers 54.0 15:18:31
55 5752 IMP RGYC 01:25:03 01:25:03 Aimee Altermatt Ryu Mayumi 55.0 15:20:03
56 5616 LOQUACIOUS SYC 01:25:50 01:25:50 Brooke Robson Zoe Wiley 56.0 15:20:50
57 9617 BULLANT RYCV 01:26:35 01:26:35 Michael Johnson Eamon Zappia 57.0 15:21:35
58 5501 WASABI BSC 01:26:51 01:26:51 Luke Bogatez Matthew Ackery 58.0 15:21:51
59 5489 DELTA BSC 01:27:46 01:27:46 Vicki Waldock Hannah Miller 59.0 15:22:46
DNF 4690 SAILMAKER RYCV     Ben Wilson Ryan Cambell 61.0